Southowram, United Kingdom
Current Conditions -  °F | °C
As of 2:50 PM on Thursday 23 Oct 2014 (Local Time) from EGNM Reporting Station
Scattered Clouds Scattered Clouds  
Wind Chill: 59°   Ceiling: Unl
Heat Index: 59°   Visibility: 6mi
Dew Point: 54°   Wind: 15mph
Humidity: 82%   Direction: 230°SW
Pressure: 29.88"   Gusts: NA
Location:  53.71°N, 1.83°W
Report Text: EGNM 231350Z 23013KT 190V270 9999 FEW019 SCT037 15/12 Q1012
Loading
Personal Weather Stations






























Interactive Weather Map
Tropical Storm Tracking
New forecast layout! Learn more

10-Day Weather Forecast

Advertisements
Track Severe Weather on mobile